createdAt,value
2019-05-23T00:02:47.231Z,5.25
2019-05-23T00:05:36.710Z,4.42
2019-05-23T00:08:26.457Z,4.65
2019-05-23T00:11:03.896Z,3.50
2019-05-23T00:13:58.110Z,3.85
2019-05-23T00:16:28.825Z,3.95
2019-05-23T00:19:01.127Z,4.15
2019-05-23T00:21:32.868Z,6.53
2019-05-23T00:24:03.951Z,5.47
2019-05-23T00:26:35.885Z,4.60
2019-05-23T00:29:10.458Z,4.85
2019-05-23T00:31:57.840Z,5.60
2019-05-23T00:34:31.801Z,8.15
2019-05-23T00:37:02.299Z,5.80
2019-05-23T00:39:32.322Z,7.92
2019-05-23T00:42:02.708Z,6.47
2019-05-23T00:44:33.177Z,6.08
2019-05-23T00:47:03.187Z,5.30
2019-05-23T00:49:33.616Z,6.53
2019-05-23T00:52:03.916Z,3.95
2019-05-23T00:54:34.583Z,3.67
2019-05-23T00:57:04.803Z,4.40
2019-05-23T00:59:35.113Z,3.60
2019-05-23T01:02:05.264Z,4.53
2019-05-23T01:04:35.449Z,3.35
2019-05-23T01:07:07.243Z,4.15
2019-05-23T01:09:38.364Z,3.35
2019-05-23T01:12:09.264Z,3.40
2019-05-23T01:14:39.220Z,3.20
2019-05-23T01:17:10.454Z,3.62
2019-05-23T01:19:40.878Z,3.47
2019-05-23T01:22:12.919Z,3.12
2019-05-23T01:24:47.277Z,3.15
2019-05-23T01:27:18.579Z,3.10
2019-05-23T01:29:50.346Z,3.60
2019-05-23T01:32:22.202Z,4.60
2019-05-23T01:34:53.218Z,2.67
2019-05-23T01:37:24.744Z,3.20
2019-05-23T01:39:55.511Z,3.58
2019-05-23T01:42:26.847Z,3.10
2019-05-23T01:44:58.604Z,3.47
2019-05-23T01:47:29.433Z,4.42
2019-05-23T01:50:00.056Z,6.10
2019-05-23T01:52:30.235Z,5.33
2019-05-23T01:55:00.816Z,5.33
2019-05-23T01:57:31.747Z,6.12
2019-05-23T02:00:10.312Z,5.58
2019-05-23T02:02:36.262Z,9.08
2019-05-23T02:05:08.861Z,7.58
2019-05-23T02:07:39.149Z,8.28
2019-05-23T02:10:11.063Z,7.92
2019-05-23T02:12:41.117Z,8.63
2019-05-23T02:15:11.962Z,8.43
2019-05-23T02:17:42.259Z,10.25
2019-05-23T02:20:16.209Z,10.82
2019-05-23T02:22:46.836Z,11.70
2019-05-23T02:25:19.416Z,11.25
2019-05-23T02:27:50.862Z,10.43
2019-05-23T02:30:34.198Z,12.07
2019-05-23T02:32:53.945Z,12.65
2019-05-23T02:35:25.082Z,10.55
2019-05-23T02:37:56.804Z,10.98
2019-05-23T02:40:28.591Z,10.85
2019-05-23T02:43:02.912Z,14.33
2019-05-23T02:45:50.008Z,11.90
2019-05-23T02:48:30.900Z,15.25
2019-05-23T02:51:14.620Z,13.53
2019-05-23T02:53:46.720Z,12.43
2019-05-23T02:56:18.709Z,11.30
2019-05-23T02:59:05.110Z,15.60
2019-05-23T03:01:42.558Z,14.13
2019-05-23T03:04:17.593Z,14.33
2019-05-23T03:06:48.451Z,17.00
2019-05-23T03:09:19.545Z,18.02
2019-05-23T03:11:52.548Z,22.50
2019-05-23T03:14:22.635Z,20.00
2019-05-23T03:16:54.236Z,17.05
2019-05-23T03:19:34.336Z,17.48
2019-05-23T03:22:31.253Z,18.70
2019-05-23T03:25:05.763Z,16.45
2019-05-23T03:27:41.944Z,17.90
2019-05-23T03:30:20.888Z,17.90
2019-05-23T03:32:53.217Z,17.27
2019-05-23T03:35:25.051Z,18.62
2019-05-23T03:37:55.199Z,20.48
2019-05-23T03:40:25.844Z,19.05
2019-05-23T03:42:57.397Z,20.30
2019-05-23T03:45:29.251Z,19.92
2019-05-23T03:47:59.368Z,20.45
2019-05-23T03:50:29.784Z,17.77
2019-05-23T03:53:00.178Z,17.07
2019-05-23T03:55:30.654Z,17.87
2019-05-23T03:58:02.736Z,16.75
2019-05-23T04:00:37.506Z,17.35
2019-05-23T04:03:09.644Z,14.03
2019-05-23T04:05:40.643Z,16.85
2019-05-23T04:08:10.929Z,19.62
2019-05-23T04:10:41.166Z,17.20
2019-05-23T04:13:11.596Z,20.15
2019-05-23T04:15:41.780Z,19.32
2019-05-23T04:18:11.802Z,22.67
2019-05-23T04:20:42.094Z,21.40
2019-05-23T04:23:12.525Z,20.17
2019-05-23T04:25:43.602Z,21.87
2019-05-23T04:28:13.598Z,23.83
2019-05-23T04:30:44.595Z,21.30
2019-05-23T04:33:14.717Z,22.17
2019-05-23T04:35:45.484Z,21.07
2019-05-23T04:38:16.283Z,18.57
2019-05-23T04:40:46.293Z,18.10
2019-05-23T04:43:16.396Z,19.67
2019-05-23T04:45:47.171Z,19.75
2019-05-23T04:48:17.358Z,20.55
2019-05-23T04:50:47.608Z,17.32
2019-05-23T04:53:17.655Z,18.50
2019-05-23T04:55:47.880Z,16.97
2019-05-23T04:58:18.513Z,19.27
2019-05-23T05:00:48.773Z,16.15
2019-05-23T05:03:19.651Z,15.88
2019-05-23T05:05:50.452Z,12.88
2019-05-23T05:08:20.767Z,13.40
2019-05-23T05:10:50.986Z,13.98
2019-05-23T05:13:21.530Z,15.58
2019-05-23T05:15:51.880Z,9.10
2019-05-23T05:18:22.103Z,13.13
2019-05-23T05:20:52.095Z,13.53
2019-05-23T05:23:23.341Z,14.65
2019-05-23T05:25:54.365Z,15.30
2019-05-23T05:28:24.446Z,14.25
2019-05-23T05:30:54.750Z,12.37
2019-05-23T05:33:25.168Z,12.80
2019-05-23T05:35:55.301Z,10.32
2019-05-23T05:38:28.565Z,13.62
2019-05-23T05:40:58.215Z,9.60
2019-05-23T05:43:28.456Z,8.30
2019-05-23T05:45:58.437Z,8.13
2019-05-23T05:48:29.379Z,8.03
2019-05-23T05:50:59.583Z,9.18
2019-05-23T05:53:30.653Z,9.43
2019-05-23T05:56:00.703Z,6.78
2019-05-23T05:58:30.764Z,9.53
2019-05-23T06:01:02.844Z,7.10
2019-05-23T06:03:32.870Z,8.78
2019-05-23T06:06:13.947Z,9.45
2019-05-23T06:08:45.595Z,9.90
2019-05-23T06:11:17.047Z,10.10
2019-05-23T06:13:47.080Z,10.13
2019-05-23T06:16:17.104Z,10.05
2019-05-23T06:18:47.507Z,8.88
2019-05-23T06:21:19.640Z,8.73
2019-05-23T06:23:51.025Z,7.42
2019-05-23T06:26:21.264Z,7.17
2019-05-23T06:28:51.298Z,6.55
2019-05-23T06:31:21.565Z,5.45
2019-05-23T06:33:53.490Z,6.08
2019-05-23T06:36:23.677Z,5.97
2019-05-23T06:38:55.593Z,6.75
2019-05-23T06:41:26.823Z,6.20
2019-05-23T06:43:56.855Z,4.17
2019-05-23T06:46:26.956Z,3.95
2019-05-23T06:48:56.952Z,3.85
2019-05-23T06:51:27.286Z,3.35
2019-05-23T06:53:57.650Z,3.12
2019-05-23T06:56:27.885Z,3.17
2019-05-23T06:58:57.891Z,1.72
2019-05-23T07:01:27.848Z,2.75
2019-05-23T07:03:57.841Z,3.67
2019-05-23T07:06:28.701Z,2.15
2019-05-23T07:08:58.845Z,4.80
2019-05-23T07:11:28.782Z,3.25
2019-05-23T07:13:58.815Z,4.97
2019-05-23T07:16:28.905Z,4.30
2019-05-23T07:18:59.272Z,4.10
2019-05-23T07:21:29.358Z,5.60
2019-05-23T07:23:59.322Z,7.97
2019-05-23T07:26:30.718Z,3.98
2019-05-23T07:29:00.766Z,4.25
2019-05-23T07:31:31.440Z,5.15
2019-05-23T07:34:02.735Z,4.17
2019-05-23T07:36:33.149Z,8.68
2019-05-23T07:39:04.461Z,4.90
2019-05-23T07:41:34.467Z,6.95
2019-05-23T07:44:05.103Z,8.25
2019-05-23T07:46:35.522Z,5.75
2019-05-23T07:49:05.892Z,8.05
2019-05-23T07:51:35.851Z,5.35
2019-05-23T07:54:26.179Z,8.20
2019-05-23T07:56:56.255Z,5.95
2019-05-23T07:59:27.210Z,7.58
2019-05-23T08:02:04.610Z,6.97
2019-05-23T08:04:34.808Z,10.53
2019-05-23T08:07:07.548Z,7.72
2019-05-23T08:09:37.816Z,10.25
2019-05-23T08:12:07.916Z,9.30
2019-05-23T08:14:38.162Z,8.03
2019-05-23T08:17:08.641Z,8.73
2019-05-23T08:19:49.051Z,8.70
2019-05-23T08:22:10.420Z,11.10
2019-05-23T08:24:41.518Z,9.63
2019-05-23T08:27:11.979Z,10.05
2019-05-23T08:29:42.290Z,10.03
2019-05-23T08:32:12.732Z,10.25
2019-05-23T08:34:43.346Z,7.85
2019-05-23T08:37:13.826Z,6.58
2019-05-23T08:39:44.625Z,10.05
2019-05-23T08:42:15.254Z,7.28
2019-05-23T08:44:45.450Z,7.72
2019-05-23T08:47:15.442Z,6.83
2019-05-23T08:49:45.574Z,5.78
2019-05-23T08:52:15.812Z,9.05
2019-05-23T08:54:46.851Z,8.88
2019-05-23T08:57:17.060Z,10.23
2019-05-23T08:59:47.487Z,10.18
2019-05-23T09:02:18.314Z,8.83
2019-05-23T09:05:03.729Z,11.38
2019-05-23T09:07:20.396Z,8.43
2019-05-23T09:09:50.548Z,8.70
2019-05-23T09:12:20.924Z,9.90
2019-05-23T09:14:51.309Z,9.73
2019-05-23T09:17:22.667Z,8.35
2019-05-23T09:19:52.714Z,10.10
2019-05-23T09:22:22.764Z,10.28
2019-05-23T09:24:53.042Z,10.85
2019-05-23T09:27:23.083Z,9.33
2019-05-23T09:29:53.299Z,13.38
2019-05-23T09:32:23.724Z,12.50
2019-05-23T09:34:53.677Z,13.13
2019-05-23T09:37:24.164Z,15.65
2019-05-23T09:39:54.880Z,17.10
2019-05-23T09:42:24.946Z,16.85
2019-05-23T09:44:55.090Z,20.77
2019-05-23T09:47:25.303Z,22.32
2019-05-23T09:49:55.653Z,19.32
2019-05-23T09:52:26.481Z,18.80
2019-05-23T09:54:56.664Z,17.42
2019-05-23T09:57:26.860Z,21.37
2019-05-23T09:59:57.178Z,19.95
2019-05-23T10:02:28.107Z,14.33
2019-05-23T10:04:58.587Z,20.40
2019-05-23T10:07:29.011Z,19.48
2019-05-23T10:09:59.163Z,16.02
2019-05-23T10:12:29.290Z,16.20
2019-05-23T10:14:59.493Z,13.15
2019-05-23T10:17:29.632Z,15.70
2019-05-23T10:19:59.748Z,14.95
2019-05-23T10:22:29.896Z,15.13
2019-05-23T10:25:00.023Z,15.83
2019-05-23T10:27:30.122Z,14.95
2019-05-23T10:30:00.158Z,18.70
2019-05-23T10:32:30.365Z,18.10
2019-05-23T10:35:00.402Z,15.03
2019-05-23T10:37:30.424Z,14.30
2019-05-23T10:40:00.478Z,15.63
2019-05-23T10:42:30.664Z,16.65
2019-05-23T10:45:00.822Z,20.12
2019-05-23T10:47:30.941Z,16.75
2019-05-23T10:50:07.289Z,17.75
2019-05-23T10:52:33.935Z,24.25
2019-05-23T10:55:04.854Z,17.92
2019-05-23T10:57:35.030Z,19.23
2019-05-23T11:00:10.674Z,21.17
2019-05-23T11:02:41.033Z,19.50
2019-05-23T11:05:14.228Z,18.25
2019-05-23T11:07:44.431Z,19.90
2019-05-23T11:10:16.403Z,21.37
2019-05-23T11:12:46.420Z,23.27
2019-05-23T11:15:17.585Z,25.62
2019-05-23T11:17:47.654Z,20.32
2019-05-23T11:20:19.270Z,22.10
2019-05-23T11:22:49.521Z,20.02
2019-05-23T11:25:19.683Z,23.25
2019-05-23T11:27:49.777Z,19.85
2019-05-23T11:30:24.482Z,23.57
2019-05-23T11:32:54.660Z,22.15
2019-05-23T11:35:24.844Z,21.97
2019-05-23T11:37:55.010Z,19.73
2019-05-23T11:40:25.118Z,24.15
2019-05-23T11:42:55.158Z,20.35
2019-05-23T11:45:27.078Z,20.55
2019-05-23T11:47:57.275Z,20.75
2019-05-23T11:50:27.539Z,21.37
2019-05-23T11:52:57.560Z,22.60
2019-05-23T11:55:27.586Z,24.57
2019-05-23T11:57:57.866Z,23.05
2019-05-23T12:00:55.630Z,28.15
2019-05-23T12:03:25.865Z,21.95
2019-05-23T12:05:55.889Z,21.02
2019-05-23T12:08:26.269Z,22.73
2019-05-23T12:10:56.469Z,24.00
2019-05-23T12:13:26.675Z,24.40
2019-05-23T12:15:57.100Z,28.02
2019-05-23T12:18:27.821Z,25.55
2019-05-23T12:20:59.826Z,30.32
2019-05-23T12:23:29.835Z,28.17
2019-05-23T12:25:59.943Z,32.53
2019-05-23T12:28:30.465Z,27.90
2019-05-23T12:31:01.478Z,29.57
2019-05-23T12:33:31.457Z,25.68
2019-05-23T12:36:01.425Z,24.92
2019-05-23T12:38:31.484Z,22.13
2019-05-23T12:41:01.712Z,29.02
2019-05-23T12:43:31.909Z,23.40
2019-05-23T12:46:02.583Z,21.55
2019-05-23T12:48:49.207Z,19.37
2019-05-23T12:51:36.024Z,19.67
2019-05-23T12:54:06.142Z,25.88
2019-05-23T12:56:36.336Z,22.10
2019-05-23T12:59:06.744Z,17.80
2019-05-23T13:01:38.567Z,18.67
2019-05-23T13:04:10.359Z,18.48
2019-05-23T13:06:41.211Z,19.95
2019-05-23T13:09:11.492Z,16.75
2019-05-23T13:11:41.809Z,16.87
2019-05-23T13:14:12.021Z,16.00
2019-05-23T13:16:43.678Z,18.37
2019-05-23T13:19:14.198Z,18.65
2019-05-23T13:21:44.396Z,18.67
2019-05-23T13:24:14.512Z,18.45
2019-05-23T13:26:44.450Z,21.10
2019-05-23T13:29:14.666Z,20.62
2019-05-23T13:31:45.034Z,19.40
2019-05-23T13:34:15.035Z,24.32
2019-05-23T13:36:45.339Z,22.40
2019-05-23T13:39:15.623Z,17.92
2019-05-23T13:41:45.695Z,17.48
2019-05-23T13:44:32.063Z,15.98
2019-05-23T13:46:47.467Z,13.90
2019-05-23T13:49:17.590Z,14.65
2019-05-23T13:51:48.147Z,15.98
2019-05-23T13:54:18.523Z,14.73
2019-05-23T13:56:48.948Z,15.65
2019-05-23T13:59:19.169Z,16.85
2019-05-23T14:01:49.416Z,18.12
2019-05-23T14:04:19.772Z,20.43
2019-05-23T14:06:49.943Z,19.20
2019-05-23T14:09:22.003Z,17.65
2019-05-23T14:12:19.631Z,15.10
2019-05-23T14:14:24.040Z,17.62
2019-05-23T14:16:55.729Z,19.87
2019-05-23T14:19:29.250Z,20.43
2019-05-23T14:21:57.727Z,20.55
2019-05-23T14:24:27.909Z,22.95
2019-05-23T14:27:02.552Z,21.57
2019-05-23T14:29:32.591Z,21.33
2019-05-23T14:32:13.906Z,22.05
2019-05-23T14:34:43.946Z,19.95
2019-05-23T14:37:18.204Z,18.98
2019-05-23T14:39:48.471Z,21.25
2019-05-23T14:42:39.051Z,21.95
2019-05-23T14:45:11.024Z,19.98
2019-05-23T14:47:57.525Z,19.65
2019-05-23T14:50:38.323Z,20.68
2019-05-23T14:53:13.474Z,20.52
2019-05-23T14:55:43.521Z,21.95
2019-05-23T14:58:14.624Z,19.25
2019-05-23T15:00:44.980Z,21.60
2019-05-23T15:03:15.351Z,21.45
2019-05-23T15:05:45.354Z,19.52
2019-05-23T15:08:15.610Z,21.60
2019-05-23T15:10:45.693Z,21.62
2019-05-23T15:13:15.826Z,21.42
2019-05-23T15:15:45.992Z,23.80
2019-05-23T15:18:16.418Z,22.85
2019-05-23T15:20:46.533Z,23.57
2019-05-23T15:23:16.972Z,21.85
2019-05-23T15:25:47.518Z,23.95
2019-05-23T15:28:17.554Z,23.27
2019-05-23T15:30:47.603Z,24.98
2019-05-23T15:33:17.844Z,28.12
2019-05-23T15:35:48.691Z,31.90
2019-05-23T15:38:18.699Z,27.82
2019-05-23T15:40:48.839Z,29.10
2019-05-23T15:43:19.076Z,31.85
2019-05-23T15:45:49.124Z,28.85
2019-05-23T15:48:19.156Z,28.65
2019-05-23T15:50:50.951Z,26.20
2019-05-23T15:53:38.745Z,27.00
2019-05-23T15:56:28.145Z,25.52
2019-05-23T15:59:11.683Z,26.10
2019-05-23T16:01:43.548Z,24.92
2019-05-23T16:04:21.650Z,24.60
2019-05-23T16:06:51.736Z,24.75
2019-05-23T16:09:30.261Z,27.48
2019-05-23T16:11:55.627Z,23.80
2019-05-23T16:14:25.649Z,24.90
2019-05-23T16:16:57.446Z,25.92
2019-05-23T16:19:27.608Z,26.45
2019-05-23T16:21:57.620Z,27.32
2019-05-23T16:24:27.913Z,29.65
2019-05-23T16:26:58.291Z,24.50
2019-05-23T16:29:28.565Z,27.77
2019-05-23T16:31:58.659Z,30.20
2019-05-23T16:34:28.981Z,29.12
2019-05-23T16:36:59.169Z,26.12
2019-05-23T16:39:45.991Z,30.70
2019-05-23T16:42:01.167Z,26.87
2019-05-23T16:44:31.308Z,28.98
2019-05-23T16:47:01.619Z,26.10
2019-05-23T16:49:31.776Z,31.65
2019-05-23T16:52:01.825Z,29.63
2019-05-23T16:54:33.445Z,30.72
2019-05-23T16:57:08.132Z,26.35
2019-05-23T16:59:42.563Z,26.30
2019-05-23T17:02:23.035Z,29.67
2019-05-23T17:05:11.089Z,31.23
2019-05-23T17:07:45.631Z,34.03
2019-05-23T17:10:34.078Z,30.17
2019-05-23T17:13:11.871Z,29.57
2019-05-23T17:15:46.312Z,28.77
2019-05-23T17:18:23.640Z,31.80
2019-05-23T17:21:01.204Z,31.12
2019-05-23T17:23:48.808Z,28.73
2019-05-23T17:26:20.832Z,35.08
2019-05-23T17:28:58.060Z,33.98
2019-05-23T17:31:33.176Z,32.85
2019-05-23T17:34:03.627Z,29.37
2019-05-23T17:36:33.667Z,30.75
2019-05-23T17:39:04.878Z,29.15
2019-05-23T17:41:35.286Z,32.23
2019-05-23T17:44:05.584Z,29.00
2019-05-23T17:46:37.307Z,33.45
2019-05-23T17:49:07.332Z,32.35
2019-05-23T17:51:37.317Z,33.08
2019-05-23T17:54:07.433Z,32.17
2019-05-23T17:56:37.480Z,31.02
2019-05-23T17:59:07.620Z,30.30
2019-05-23T18:01:37.790Z,29.72
2019-05-23T18:04:08.246Z,28.30
2019-05-23T18:06:38.727Z,28.62
2019-05-23T18:09:09.655Z,27.35
2019-05-23T18:11:39.883Z,29.12
2019-05-23T18:14:10.648Z,34.58
2019-05-23T18:16:40.667Z,27.98
2019-05-23T18:19:10.901Z,30.68
2019-05-23T18:21:41.609Z,29.20
2019-05-23T18:24:11.792Z,28.77
2019-05-23T18:26:41.841Z,29.57
2019-05-23T18:29:11.951Z,29.45
2019-05-23T18:31:42.754Z,32.80
2019-05-23T18:34:14.024Z,30.90
2019-05-23T18:36:44.190Z,32.65
2019-05-23T18:39:14.215Z,36.03
2019-05-23T18:41:44.399Z,35.15
2019-05-23T18:44:15.337Z,34.18
2019-05-23T18:46:47.005Z,35.33
2019-05-23T18:49:18.684Z,30.97
2019-05-23T18:51:49.263Z,31.33
2019-05-23T18:54:20.291Z,32.98
2019-05-23T18:56:50.342Z,33.78
2019-05-23T18:59:20.358Z,34.35
2019-05-23T19:01:50.473Z,34.33
2019-05-23T19:04:20.689Z,45.90
2019-05-23T19:06:51.378Z,35.68
2019-05-23T19:09:21.805Z,36.20
2019-05-23T19:11:52.179Z,33.02
2019-05-23T19:14:22.615Z,31.42
2019-05-23T19:16:53.294Z,33.25
2019-05-23T19:19:23.558Z,35.75
2019-05-23T19:21:54.074Z,30.25
2019-05-23T19:24:24.242Z,37.00
2019-05-23T19:26:55.079Z,33.63
2019-05-23T19:29:25.130Z,40.08
2019-05-23T19:31:55.375Z,37.73
2019-05-23T19:34:25.481Z,37.67
2019-05-23T19:36:55.646Z,39.90
2019-05-23T19:39:25.840Z,39.70
2019-05-23T19:41:55.896Z,38.92
2019-05-23T19:44:25.877Z,41.92
2019-05-23T19:46:55.989Z,26.60
2019-05-23T19:49:27.294Z,41.98
2019-05-23T19:51:57.657Z,43.20
2019-05-23T19:54:28.184Z,47.13
2019-05-23T19:56:58.242Z,51.92
2019-05-23T19:59:28.386Z,52.38
2019-05-23T20:02:07.280Z,51.08
2019-05-23T20:04:41.671Z,56.33
2019-05-23T20:07:15.408Z,56.55
2019-05-23T20:09:43.930Z,57.75
2019-05-23T20:12:14.860Z,61.75
2019-05-23T20:14:45.204Z,61.18
2019-05-23T20:17:16.014Z,61.77
2019-05-23T20:19:50.143Z,65.90
2019-05-23T20:22:18.184Z,69.25
2019-05-23T20:24:48.486Z,69.03
2019-05-23T20:27:18.582Z,63.85
2019-05-23T20:29:48.604Z,60.30
2019-05-23T20:32:18.791Z,64.85
2019-05-23T20:34:48.860Z,67.42
2019-05-23T20:37:20.120Z,68.35
2019-05-23T20:39:50.294Z,70.52
2019-05-23T20:42:21.304Z,71.97
2019-05-23T20:44:51.387Z,68.37
2019-05-23T20:47:22.005Z,70.60
2019-05-23T20:49:52.198Z,72.72
2019-05-23T20:52:22.242Z,66.10
2019-05-23T20:54:52.341Z,68.47
2019-05-23T20:57:22.428Z,52.20
2019-05-23T20:59:52.622Z,63.23
2019-05-23T21:02:22.766Z,68.05
2019-05-23T21:04:52.897Z,71.05
2019-05-23T21:07:22.954Z,61.15
2019-05-23T21:09:52.993Z,61.63
2019-05-23T21:12:29.939Z,71.00
2019-05-23T21:14:54.928Z,72.08
2019-05-23T21:17:25.471Z,73.55
2019-05-23T21:19:55.583Z,72.78
2019-05-23T21:22:25.710Z,80.35
2019-05-23T21:24:56.751Z,78.90
2019-05-23T21:27:26.826Z,85.35
2019-05-23T21:29:56.928Z,86.30
2019-05-23T21:32:27.236Z,81.47
2019-05-23T21:34:57.384Z,87.05
2019-05-23T21:37:27.422Z,83.07
2019-05-23T21:39:57.383Z,87.78
2019-05-23T21:42:27.367Z,78.07
2019-05-23T21:44:57.471Z,85.55
2019-05-23T21:47:27.493Z,83.40
2019-05-23T21:49:57.528Z,90.25
2019-05-23T21:52:27.604Z,81.30
2019-05-23T21:54:58.665Z,81.60
2019-05-23T21:57:28.664Z,77.10
2019-05-23T21:59:58.652Z,85.22
2019-05-23T22:02:30.343Z,89.75
2019-05-23T22:05:02.160Z,84.72
2019-05-23T22:07:33.570Z,89.60
2019-05-23T22:10:05.133Z,92.40
2019-05-23T22:12:35.220Z,101.58
2019-05-23T22:15:06.681Z,94.72
2019-05-23T22:17:37.029Z,100.90
2019-05-23T22:20:06.988Z,93.75
2019-05-23T22:22:36.973Z,105.12
2019-05-23T22:25:07.450Z,109.90
2019-05-23T22:27:37.473Z,117.90
2019-05-23T22:30:08.003Z,98.65
2019-05-23T22:32:38.085Z,100.12
2019-05-23T22:35:09.865Z,110.10
2019-05-23T22:37:39.987Z,130.90
2019-05-23T22:40:10.293Z,138.15
2019-05-23T22:42:41.033Z,141.55
2019-05-23T22:45:14.228Z,129.20
2019-05-23T22:47:44.361Z,137.25
2019-05-23T22:50:14.540Z,143.07
2019-05-23T22:52:44.657Z,153.32
2019-05-23T22:55:14.739Z,165.28
2019-05-23T22:57:44.811Z,161.77
2019-05-23T23:00:18.740Z,164.82
2019-05-23T23:02:48.753Z,165.68
2019-05-23T23:05:18.831Z,172.05
2019-05-23T23:07:48.995Z,180.05
2019-05-23T23:10:19.403Z,163.87
2019-05-23T23:12:49.448Z,172.57
2019-05-23T23:15:19.547Z,170.05
2019-05-23T23:17:49.606Z,174.75
2019-05-23T23:20:19.646Z,172.30
2019-05-23T23:22:49.724Z,159.82
2019-05-23T23:25:19.921Z,156.87
2019-05-23T23:27:49.974Z,154.78
2019-05-23T23:30:21.823Z,159.32
2019-05-23T23:32:51.794Z,157.47
2019-05-23T23:35:21.751Z,164.77
2019-05-23T23:37:51.946Z,151.53
2019-05-23T23:40:22.041Z,158.82
2019-05-23T23:42:53.118Z,162.65
2019-05-23T23:45:41.285Z,158.42
2019-05-23T23:48:29.669Z,155.90
2019-05-23T23:51:17.486Z,160.12
2019-05-23T23:54:05.218Z,159.50
2019-05-23T23:56:53.330Z,149.87
2019-05-23T23:59:22.809Z,161.95
